Time;durP1;ratioP1;P1;durP2;ratioP2;P2;SDS_P1;SDS_P2;PMS_P1;PMS_P2;Temp;Humidity;BMP_temperature;BMP_pressure;BME280_temperature;BME280_humidity;BME280_pressure;Samples;Min_cycle;Max_cycle;Signal;HPM_P1;HPM_P2
2022/12/11 00:00:07;;;;;;;37.15;22.88;;;;;;;;;;4941435;28;20055;-79
2022/12/11 00:02:33;;;;;;;35.30;23.40;;;;;;;;;;4951908;28;20419;-80
2022/12/11 00:05:00;;;;;;;36.53;23.00;;;;;;;;;;4940662;28;20078;-78
2022/12/11 00:07:27;;;;;;;34.50;22.60;;;;;;;;;;4942159;28;20054;-78
2022/12/11 00:09:53;;;;;;;31.42;21.52;;;;;;;;;;4973095;28;20050;-78
2022/12/11 00:12:20;;;;;;;32.72;22.13;;;;;;;;;;4940645;28;20043;-78
2022/12/11 00:14:47;;;;;;;33.47;20.88;;;;;;;;;;4956940;28;20050;-78
2022/12/11 00:17:14;;;;;;;33.17;22.33;;;;;;;;;;4956882;28;20054;-78
2022/12/11 00:19:40;;;;;;;36.33;23.73;;;;;;;;;;4956977;28;20114;-78
2022/12/11 00:22:07;;;;;;;35.60;23.83;;;;;;;;;;4956935;28;20053;-78
2022/12/11 00:24:34;;;;;;;35.65;22.98;;;;;;;;;;4972906;28;20081;-78
2022/12/11 00:27:01;;;;;;;37.80;25.23;;;;;;;;;;4955990;28;20258;-77
2022/12/11 00:29:27;;;;;;;38.08;24.05;;;;;;;;;;4972013;28;20059;-77
2022/12/11 00:31:54;;;;;;;37.50;23.27;;;;;;;;;;4970885;28;20058;-77
2022/12/11 00:34:21;;;;;;;32.65;21.63;;;;;;;;;;4955047;28;20066;-77
2022/12/11 00:36:48;;;;;;;36.05;21.92;;;;;;;;;;4955642;28;20183;-77
2022/12/11 00:39:14;;;;;;;36.22;22.00;;;;;;;;;;4955034;28;20063;-77
2022/12/11 00:41:41;;;;;;;33.90;22.23;;;;;;;;;;4939184;28;20051;-77
2022/12/11 00:44:08;;;;;;;33.47;21.30;;;;;;;;;;4954527;28;20062;-77
2022/12/11 00:46:35;;;;;;;29.77;20.88;;;;;;;;;;4954733;28;20043;-77
2022/12/11 00:49:01;;;;;;;31.60;21.27;;;;;;;;;;4970839;28;20061;-77
2022/12/11 00:51:28;;;;;;;30.80;20.77;;;;;;;;;;4954788;28;20067;-77
2022/12/11 00:53:55;;;;;;;33.17;22.15;;;;;;;;;;4974706;28;20074;-77
2022/12/11 00:56:22;;;;;;;30.08;20.48;;;;;;;;;;4974380;28;20097;-77
2022/12/11 00:58:49;;;;;;;34.13;22.23;;;;;;;;;;4974087;28;20495;-77
2022/12/11 01:01:18;;;;;;;33.97;21.58;;;;;;;;;;4974442;28;20062;-77
2022/12/11 01:03:45;;;;;;;34.22;21.85;;;;;;;;;;4944237;28;20482;-77
2022/12/11 01:06:14;;;;;;;30.33;21.00;;;;;;;;;;4943926;28;20050;-77
2022/12/11 01:08:42;;;;;;;32.42;21.40;;;;;;;;;;4961027;28;20054;-78
2022/12/11 01:11:10;;;;;;;31.23;20.25;;;;;;;;;;4957801;28;20051;-78
2022/12/11 01:13:38;;;;;;;30.08;19.77;;;;;;;;;;4957315;28;20531;-78
2022/12/11 01:16:14;;;;;;;26.80;19.08;;;;;;;;;;4941409;28;20405;-77
2022/12/11 01:18:41;;;;;;;30.08;20.08;;;;;;;;;;4958198;28;20070;-77
2022/12/11 01:21:12;;;;;;;29.88;20.10;;;;;;;;;;4941453;28;20070;-77
2022/12/11 01:23:39;;;;;;;30.25;20.23;;;;;;;;;;4940511;28;20050;-77
2022/12/11 01:26:14;;;;;;;29.95;19.05;;;;;;;;;;4972140;28;20055;-77
2022/12/11 01:28:41;;;;;;;30.27;19.30;;;;;;;;;;4941834;28;20078;-77
2022/12/11 01:31:09;;;;;;;28.13;19.05;;;;;;;;;;4974351;28;20058;-77
2022/12/11 01:33:36;;;;;;;27.98;18.60;;;;;;;;;;4975249;28;20055;-76
2022/12/11 01:36:15;;;;;;;28.80;19.33;;;;;;;;;;4957875;28;20470;-77
2022/12/11 01:38:42;;;;;;;27.67;18.58;;;;;;;;;;4942255;28;20063;-76
2022/12/11 01:41:09;;;;;;;27.63;18.10;;;;;;;;;;4957590;28;20058;-77
2022/12/11 01:43:55;;;;;;;29.30;19.45;;;;;;;;;;4938281;29;20058;-76
2022/12/11 01:46:22;;;;;;;28.80;19.30;;;;;;;;;;4969883;28;20051;-76
2022/12/11 01:48:49;;;;;;;29.00;18.77;;;;;;;;;;4938418;29;20063;-77
2022/12/11 01:51:16;;;;;;;29.00;18.70;;;;;;;;;;4938663;29;20079;-76
2022/12/11 01:53:48;;;;;;;25.90;19.15;;;;;;;;;;4970089;28;20051;-77
2022/12/11 01:56:14;;;;;;;32.22;21.17;;;;;;;;;;4954558;28;20059;-77
2022/12/11 01:58:46;;;;;;;27.73;20.52;;;;;;;;;;4957949;28;20070;-77
2022/12/11 02:01:27;;;;;;;27.88;19.35;;;;;;;;;;4942332;28;20055;-77
2022/12/11 02:03:53;;;;;;;27.52;19.17;;;;;;;;;;4942961;28;20051;-77
2022/12/11 02:06:38;;;;;;;23.30;16.90;;;;;;;;;;4974159;28;20050;-77
2022/12/11 02:09:07;;;;;;;27.42;18.40;;;;;;;;;;4942873;28;20499;-77
2022/12/11 02:11:55;;;;;;;25.92;18.55;;;;;;;;;;4957994;28;20511;-77
2022/12/11 02:14:57;;;;;;;25.08;17.73;;;;;;;;;;4935546;29;20063;-77
2022/12/11 02:17:34;;;;;;;26.05;18.77;;;;;;;;;;4953533;29;20059;-77
2022/12/11 02:20:07;;;;;;;22.75;16.10;;;;;;;;;;4937587;29;20058;-77
2022/12/11 02:22:58;;;;;;;24.38;16.45;;;;;;;;;;4954423;28;20051;-77
2022/12/11 02:25:48;;;;;;;22.02;15.45;;;;;;;;;;4950973;28;20065;-77
2022/12/11 02:28:37;;;;;;;21.90;15.02;;;;;;;;;;4963157;28;20051;-77
2022/12/11 02:31:31;;;;;;;22.10;15.73;;;;;;;;;;4945435;28;20051;-78
2022/12/11 02:34:04;;;;;;;25.27;17.15;;;;;;;;;;4959987;28;20063;-77
2022/12/11 02:36:35;;;;;;;25.20;17.85;;;;;;;;;;4972659;28;20055;-77
2022/12/11 02:39:02;;;;;;;27.65;19.15;;;;;;;;;;4941184;28;20423;-77
2022/12/11 02:41:29;;;;;;;26.20;18.38;;;;;;;;;;4940612;28;20059;-76
2022/12/11 02:43:56;;;;;;;26.42;18.52;;;;;;;;;;4956513;28;20058;-76
2022/12/11 02:46:23;;;;;;;23.40;17.05;;;;;;;;;;4940849;28;20051;-77
2022/12/11 02:48:50;;;;;;;25.10;17.42;;;;;;;;;;4956230;28;20077;-77
2022/12/11 02:51:20;;;;;;;22.02;15.60;;;;;;;;;;4956160;28;20069;-76
2022/12/11 02:53:46;;;;;;;20.15;14.18;;;;;;;;;;4956255;28;20523;-77
2022/12/11 02:56:23;;;;;;;23.17;15.55;;;;;;;;;;4940428;28;20061;-76
2022/12/11 02:58:56;;;;;;;25.73;17.38;;;;;;;;;;4940502;28;20058;-76
2022/12/11 03:01:25;;;;;;;23.23;17.42;;;;;;;;;;4971683;28;20076;-76
2022/12/11 03:03:53;;;;;;;25.85;17.80;;;;;;;;;;4955657;28;20057;-76
2022/12/11 03:06:22;;;;;;;22.35;16.00;;;;;;;;;;4971900;28;20499;-76
2022/12/11 03:08:50;;;;;;;23.73;16.35;;;;;;;;;;4955937;28;20055;-76
2022/12/11 03:11:17;;;;;;;20.95;15.77;;;;;;;;;;4971491;28;20065;-76
2022/12/11 03:13:44;;;;;;;21.15;14.40;;;;;;;;;;4971597;28;20510;-76
2022/12/11 03:16:16;;;;;;;20.35;14.38;;;;;;;;;;4970821;28;20054;-77
2022/12/11 03:19:15;;;;;;;18.95;14.43;;;;;;;;;;4940475;28;20455;-77
2022/12/11 03:21:49;;;;;;;24.40;17.67;;;;;;;;;;4953192;28;20051;-77
2022/12/11 03:24:28;;;;;;;23.00;16.83;;;;;;;;;;4952787;28;20073;-77
2022/12/11 03:27:00;;;;;;;23.02;16.63;;;;;;;;;;4937647;28;20065;-77
2022/12/11 03:29:36;;;;;;;23.63;15.88;;;;;;;;;;4941246;28;20142;-77
2022/12/11 03:32:03;;;;;;;21.73;14.55;;;;;;;;;;4940673;28;20058;-76
2022/12/11 03:34:43;;;;;;;23.00;16.40;;;;;;;;;;4971284;28;20078;-77
2022/12/11 03:37:11;;;;;;;19.33;14.23;;;;;;;;;;4956394;28;20061;-77
2022/12/11 03:39:48;;;;;;;23.08;15.73;;;;;;;;;;4939387;28;20547;-75
2022/12/11 03:42:14;;;;;;;21.50;15.77;;;;;;;;;;4939662;28;20051;-77
2022/12/11 03:45:31;;;;;;;24.05;17.17;;;;;;;;;;4955220;28;20058;-77
2022/12/11 03:47:58;;;;;;;26.38;17.77;;;;;;;;;;4971458;28;20503;-76
2022/12/11 03:50:25;;;;;;;26.08;17.67;;;;;;;;;;4939199;28;20046;-76
2022/12/11 03:52:52;;;;;;;23.77;17.20;;;;;;;;;;4939118;28;20117;-76
2022/12/11 03:55:18;;;;;;;25.85;17.70;;;;;;;;;;4971090;28;20063;-76
2022/12/11 03:57:45;;;;;;;25.17;17.75;;;;;;;;;;4954969;28;20066;-76
2022/12/11 04:00:15;;;;;;;24.25;16.80;;;;;;;;;;4955208;28;20050;-76
2022/12/11 04:02:42;;;;;;;26.98;17.58;;;;;;;;;;4970657;28;20129;-76
2022/12/11 04:05:09;;;;;;;26.38;18.15;;;;;;;;;;4955257;28;20618;-76
2022/12/11 04:07:36;;;;;;;25.63;17.48;;;;;;;;;;4955284;28;20102;-76
2022/12/11 04:10:04;;;;;;;24.77;16.98;;;;;;;;;;4954972;28;20051;-75
2022/12/11 04:12:30;;;;;;;25.40;16.65;;;;;;;;;;4954491;28;20074;-76
2022/12/11 04:15:03;;;;;;;25.95;17.58;;;;;;;;;;4955285;28;20054;-76
2022/12/11 04:26:16;;;;;;;28.20;19.40;;;;;;;;;;4981920;28;20098;-76
2022/12/11 04:28:43;;;;;;;27.63;20.33;;;;;;;;;;4945190;28;20496;-76
2022/12/11 04:31:14;;;;;;;26.42;18.23;;;;;;;;;;4958752;28;20058;-76
2022/12/11 04:33:41;;;;;;;26.33;18.40;;;;;;;;;;4943688;28;20507;-76
2022/12/11 04:36:09;;;;;;;27.67;18.40;;;;;;;;;;4974719;28;20109;-76
2022/12/11 04:38:35;;;;;;;26.25;18.02;;;;;;;;;;4959313;28;20143;-75
2022/12/11 04:41:07;;;;;;;27.42;18.15;;;;;;;;;;4974620;28;20047;-76
2022/12/11 04:43:34;;;;;;;25.35;17.40;;;;;;;;;;4958478;28;20093;-76
2022/12/11 04:46:09;;;;;;;25.38;17.67;;;;;;;;;;4942784;28;20069;-76
2022/12/11 04:48:36;;;;;;;25.83;18.83;;;;;;;;;;4958650;28;20058;-76
2022/12/11 04:51:03;;;;;;;27.63;18.33;;;;;;;;;;4942672;28;20126;-76
2022/12/11 04:53:30;;;;;;;26.27;18.30;;;;;;;;;;4958173;28;20054;-76
2022/12/11 04:55:57;;;;;;;28.67;19.95;;;;;;;;;;4958374;28;20470;-76
2022/12/11 04:58:25;;;;;;;27.30;19.45;;;;;;;;;;4974175;28;20051;-76
2022/12/11 05:00:52;;;;;;;29.33;20.60;;;;;;;;;;4973912;28;20058;-76
2022/12/11 05:03:19;;;;;;;28.13;19.92;;;;;;;;;;4973792;28;20057;-76
2022/12/11 05:05:50;;;;;;;26.65;18.63;;;;;;;;;;4974184;28;20054;-77
2022/12/11 05:08:17;;;;;;;27.88;19.73;;;;;;;;;;4959238;28;20055;-77
2022/12/11 05:10:45;;;;;;;29.23;19.27;;;;;;;;;;4959463;28;20058;-79
2022/12/11 05:13:15;;;;;;;28.35;20.52;;;;;;;;;;4958303;28;20077;-78
2022/12/11 05:15:42;;;;;;;28.23;19.48;;;;;;;;;;4976410;28;20046;-78
2022/12/11 05:18:09;;;;;;;26.48;19.58;;;;;;;;;;4960367;28;20426;-78
2022/12/11 05:20:36;;;;;;;28.95;19.80;;;;;;;;;;4958215;28;20058;-79
2022/12/11 05:23:02;;;;;;;32.10;19.63;;;;;;;;;;4976015;28;20043;-79
2022/12/11 05:25:29;;;;;;;30.85;20.90;;;;;;;;;;4943887;29;20074;-78
2022/12/11 05:27:58;;;;;;;28.98;20.02;;;;;;;;;;4959977;28;20074;-81
2022/12/11 05:30:25;;;;;;;29.23;21.08;;;;;;;;;;4967370;28;20058;-78
2022/12/11 05:32:52;;;;;;;31.88;21.45;;;;;;;;;;4967540;28;20058;-78
2022/12/11 05:35:19;;;;;;;31.65;21.83;;;;;;;;;;4947760;28;20494;-78
2022/12/11 05:37:45;;;;;;;34.58;23.73;;;;;;;;;;4964638;28;20504;-78
2022/12/11 05:40:12;;;;;;;31.77;22.77;;;;;;;;;;4939985;29;20059;-78
2022/12/11 05:42:39;;;;;;;36.50;24.63;;;;;;;;;;4940297;29;20451;-78
2022/12/11 05:45:06;;;;;;;35.08;23.42;;;;;;;;;;4934481;28;20416;-78
2022/12/11 05:47:33;;;;;;;36.08;24.33;;;;;;;;;;4961890;28;20051;-78
2022/12/11 05:50:00;;;;;;;35.20;23.73;;;;;;;;;;4941267;28;20058;-78
2022/12/11 05:52:27;;;;;;;38.78;25.58;;;;;;;;;;4964978;28;20051;-78
2022/12/11 05:54:53;;;;;;;36.85;24.83;;;;;;;;;;4946830;28;20053;-78
2022/12/11 05:57:20;;;;;;;40.25;27.27;;;;;;;;;;4962532;28;20047;-78
2022/12/11 05:59:47;;;;;;;43.88;28.58;;;;;;;;;;4958229;28;20051;-76
2022/12/11 06:02:13;;;;;;;42.17;27.88;;;;;;;;;;4953619;28;20062;-77
2022/12/11 06:04:41;;;;;;;44.95;28.33;;;;;;;;;;4953676;29;20802;-77
2022/12/11 06:07:07;;;;;;;41.05;26.80;;;;;;;;;;4953535;29;20062;-76
2022/12/11 06:09:34;;;;;;;39.08;26.02;;;;;;;;;;4954778;28;20511;-76
2022/12/11 06:12:01;;;;;;;46.58;30.00;;;;;;;;;;4954764;28;20474;-76
2022/12/11 06:14:27;;;;;;;46.00;29.33;;;;;;;;;;4937653;29;20047;-76
2022/12/11 06:16:54;;;;;;;48.08;28.75;;;;;;;;;;4953545;29;20055;-77
2022/12/11 06:19:21;;;;;;;48.60;31.20;;;;;;;;;;4953714;29;20431;-77
2022/12/11 06:21:48;;;;;;;48.38;30.63;;;;;;;;;;4945878;28;20055;-77
2022/12/11 06:24:14;;;;;;;52.38;30.80;;;;;;;;;;4953141;29;20069;-78
2022/12/11 06:26:41;;;;;;;47.13;29.63;;;;;;;;;;4953539;29;20054;-77
2022/12/11 06:29:08;;;;;;;49.25;29.98;;;;;;;;;;4953887;28;20054;-77
2022/12/11 06:31:39;;;;;;;48.83;31.23;;;;;;;;;;4972900;28;20051;-77
2022/12/11 06:34:06;;;;;;;48.03;29.85;;;;;;;;;;4972314;28;20578;-77
2022/12/11 06:36:33;;;;;;;48.45;30.88;;;;;;;;;;4972228;28;20056;-77
2022/12/11 06:39:00;;;;;;;50.50;30.60;;;;;;;;;;4972233;28;20066;-77
2022/12/11 06:41:27;;;;;;;53.42;31.80;;;;;;;;;;4971934;28;20059;-76
2022/12/11 06:43:53;;;;;;;51.17;32.45;;;;;;;;;;4972107;28;20079;-77
2022/12/11 06:46:20;;;;;;;54.58;33.47;;;;;;;;;;4972529;28;20515;-77
2022/12/11 06:48:47;;;;;;;54.78;33.78;;;;;;;;;;4956118;28;20058;-78
2022/12/11 06:51:19;;;;;;;63.00;36.05;;;;;;;;;;4940055;28;20050;-78
2022/12/11 06:53:51;;;;;;;60.67;35.90;;;;;;;;;;4956515;28;20050;-77
2022/12/11 06:56:18;;;;;;;55.58;34.28;;;;;;;;;;4956060;28;20066;-77
2022/12/11 06:58:44;;;;;;;50.13;31.52;;;;;;;;;;4940294;28;20047;-77
2022/12/11 07:01:13;;;;;;;52.80;33.47;;;;;;;;;;4955760;28;20065;-78
2022/12/11 07:03:40;;;;;;;56.58;34.63;;;;;;;;;;4972093;28;20137;-78
2022/12/11 07:06:07;;;;;;;54.08;33.97;;;;;;;;;;4957367;28;20423;-78
2022/12/11 07:08:34;;;;;;;49.95;33.88;;;;;;;;;;4960051;28;20054;-77
2022/12/11 07:11:08;;;;;;;54.83;33.63;;;;;;;;;;4977452;28;20050;-77
2022/12/11 07:13:35;;;;;;;46.70;30.47;;;;;;;;;;4990518;28;20510;-77
2022/12/11 07:16:03;;;;;;;45.75;29.73;;;;;;;;;;4972423;28;20702;-77
2022/12/11 07:18:31;;;;;;;50.95;31.33;;;;;;;;;;4955799;28;20055;-78
2022/12/11 07:21:01;;;;;;;45.65;30.98;;;;;;;;;;4956213;28;20061;-83
2022/12/11 07:23:28;;;;;;;52.10;32.70;;;;;;;;;;4956109;28;20043;-77
2022/12/11 07:25:55;;;;;;;54.25;32.80;;;;;;;;;;4955753;28;20062;-76
2022/12/11 07:28:22;;;;;;;46.42;30.00;;;;;;;;;;4971635;28;20058;-76
2022/12/11 07:30:49;;;;;;;47.55;30.70;;;;;;;;;;4971070;28;20051;-77
2022/12/11 07:33:16;;;;;;;47.42;29.95;;;;;;;;;;4971280;28;20047;-76
2022/12/11 07:35:43;;;;;;;43.95;28.40;;;;;;;;;;4955432;28;20066;-77
2022/12/11 07:38:09;;;;;;;46.25;29.65;;;;;;;;;;4955378;28;20058;-78
2022/12/11 07:40:36;;;;;;;44.70;27.83;;;;;;;;;;4955421;28;20056;-76
2022/12/11 07:43:03;;;;;;;44.00;28.33;;;;;;;;;;4971136;28;20054;-75
2022/12/11 07:45:30;;;;;;;44.67;29.58;;;;;;;;;;4971182;28;20148;-76
2022/12/11 07:47:57;;;;;;;38.97;25.23;;;;;;;;;;4955650;28;20066;-77
2022/12/11 07:50:24;;;;;;;38.92;25.77;;;;;;;;;;4972160;28;20047;-77
2022/12/11 07:52:51;;;;;;;39.53;26.00;;;;;;;;;;4943585;28;20225;-78
2022/12/11 07:55:18;;;;;;;38.28;26.10;;;;;;;;;;4956356;28;20575;-78
2022/12/11 07:57:45;;;;;;;41.67;27.40;;;;;;;;;;4971313;28;20062;-77
2022/12/11 08:00:12;;;;;;;41.33;26.52;;;;;;;;;;4939148;28;20055;-77
2022/12/11 08:02:39;;;;;;;41.78;26.42;;;;;;;;;;4955054;28;20491;-78
2022/12/11 08:05:06;;;;;;;38.65;23.92;;;;;;;;;;4971434;28;20053;-77
2022/12/11 08:07:34;;;;;;;38.00;25.17;;;;;;;;;;4970732;28;20055;-77
2022/12/11 08:10:02;;;;;;;34.42;22.67;;;;;;;;;;4954760;28;20534;-77
2022/12/11 08:12:29;;;;;;;37.28;23.83;;;;;;;;;;4956194;28;20058;-77
2022/12/11 08:14:56;;;;;;;30.73;20.05;;;;;;;;;;4957678;28;20475;-79
2022/12/11 08:17:23;;;;;;;35.10;22.35;;;;;;;;;;4939851;28;20058;-78
2022/12/11 08:19:56;;;;;;;30.98;20.85;;;;;;;;;;4957309;28;20141;-78
2022/12/11 08:22:23;;;;;;;32.08;21.52;;;;;;;;;;4972759;28;20063;-76
2022/12/11 08:24:49;;;;;;;32.72;22.23;;;;;;;;;;4974127;28;20059;-78
2022/12/11 08:27:16;;;;;;;32.03;20.88;;;;;;;;;;4958734;28;20070;-77
2022/12/11 08:29:44;;;;;;;31.60;21.45;;;;;;;;;;4970830;28;20128;-77
2022/12/11 08:32:12;;;;;;;35.47;23.67;;;;;;;;;;4971165;28;20066;-76
2022/12/11 08:34:39;;;;;;;31.08;21.52;;;;;;;;;;4971128;28;20047;-76
2022/12/11 08:37:06;;;;;;;31.38;20.95;;;;;;;;;;4971318;28;20585;-78
2022/12/11 08:39:32;;;;;;;27.48;19.50;;;;;;;;;;4972324;28;20059;-77
2022/12/11 08:41:59;;;;;;;29.02;19.85;;;;;;;;;;4955827;28;20061;-78
2022/12/11 08:44:27;;;;;;;33.35;20.23;;;;;;;;;;4960804;28;20062;-77
2022/12/11 08:46:53;;;;;;;37.50;21.67;;;;;;;;;;4975320;28;20047;-79
2022/12/11 08:49:20;;;;;;;45.22;25.90;;;;;;;;;;4961293;28;20075;-80
2022/12/11 08:51:47;;;;;;;34.83;23.38;;;;;;;;;;4960943;28;20066;-80
2022/12/11 08:54:14;;;;;;;31.92;20.52;;;;;;;;;;4959100;28;20046;-78
2022/12/11 08:56:40;;;;;;;29.50;20.88;;;;;;;;;;4976853;28;20643;-79
2022/12/11 08:59:07;;;;;;;28.73;19.90;;;;;;;;;;4965438;28;20051;-77
2022/12/11 09:01:34;;;;;;;33.13;21.90;;;;;;;;;;4972282;28;20110;-77
2022/12/11 09:04:01;;;;;;;31.05;20.45;;;;;;;;;;4974932;28;20058;-77
2022/12/11 09:06:29;;;;;;;25.05;17.80;;;;;;;;;;4972587;28;20061;-78
2022/12/11 09:08:58;;;;;;;28.42;18.95;;;;;;;;;;4941767;28;20051;-75
2022/12/11 09:11:33;;;;;;;29.55;19.88;;;;;;;;;;4958156;28;20105;-75
2022/12/11 09:14:01;;;;;;;29.77;20.85;;;;;;;;;;4973010;28;20051;-75
2022/12/11 09:16:36;;;;;;;29.42;19.90;;;;;;;;;;4987085;28;20055;-76
2022/12/11 09:19:03;;;;;;;26.88;18.23;;;;;;;;;;4967750;28;20060;-75
2022/12/11 09:21:30;;;;;;;27.10;19.02;;;;;;;;;;4985454;28;20059;-76
2022/12/11 09:23:58;;;;;;;30.23;19.52;;;;;;;;;;4970513;28;20054;-76
2022/12/11 09:26:26;;;;;;;27.45;20.05;;;;;;;;;;4974671;28;20076;-76
2022/12/11 09:28:53;;;;;;;27.15;19.52;;;;;;;;;;4975312;28;20054;-77
2022/12/11 09:31:31;;;;;;;28.48;19.60;;;;;;;;;;4942462;28;20062;-75
2022/12/11 09:34:04;;;;;;;34.08;21.08;;;;;;;;;;4974298;28;20057;-76
2022/12/11 09:36:32;;;;;;;28.50;19.60;;;;;;;;;;4976920;28;20070;-79
2022/12/11 09:39:00;;;;;;;40.67;21.15;;;;;;;;;;4958283;28;20047;-78
2022/12/11 09:41:40;;;;;;;30.73;20.00;;;;;;;;;;4973856;28;20427;-76
2022/12/11 09:44:10;;;;;;;29.08;19.38;;;;;;;;;;4962069;28;20054;-77
2022/12/11 09:46:36;;;;;;;31.50;20.23;;;;;;;;;;4974550;28;20054;-77
2022/12/11 09:49:04;;;;;;;28.98;20.25;;;;;;;;;;4973628;28;20054;-76
2022/12/11 09:51:37;;;;;;;30.70;19.58;;;;;;;;;;4976603;28;20105;-79
2022/12/11 09:54:03;;;;;;;;;;;;;;;;;;4976202;28;20051;-78
2022/12/11 09:56:56;;;;;;;30.50;18.33;;;;;;;;;;4977824;28;19938;-80
2022/12/11 09:59:49;;;;;;;24.85;16.92;;;;;;;;;;4942677;28;20061;-77
2022/12/11 10:02:15;;;;;;;25.90;17.92;;;;;;;;;;4953966;28;20086;-77
2022/12/11 10:04:58;;;;;;;29.25;18.45;;;;;;;;;;4965793;28;20054;-76
2022/12/11 10:07:29;;;;;;;29.75;20.00;;;;;;;;;;4957229;28;20050;-77
2022/12/11 10:10:17;;;;;;;30.08;19.45;;;;;;;;;;4973506;28;20479;-76
2022/12/11 10:13:19;;;;;;;29.33;18.02;;;;;;;;;;4972654;28;20130;-76
2022/12/11 10:15:56;;;;;;;37.50;22.70;;;;;;;;;;4944293;28;20050;-76
2022/12/11 10:18:24;;;;;;;32.70;19.02;;;;;;;;;;4958030;28;20146;-77
2022/12/11 10:20:51;;;;;;;27.75;17.98;;;;;;;;;;4972727;28;20059;-77
2022/12/11 10:23:27;;;;;;;23.17;15.68;;;;;;;;;;4973138;28;20059;-76
2022/12/11 10:25:58;;;;;;;25.73;16.63;;;;;;;;;;4958680;28;20066;-76
2022/12/11 10:28:26;;;;;;;24.23;15.02;;;;;;;;;;4975186;28;20061;-84
2022/12/11 10:31:14;;;;;;;24.05;14.70;;;;;;;;;;4973683;28;20053;-77
2022/12/11 10:34:00;;;;;;;20.48;13.63;;;;;;;;;;4972524;28;20067;-78
2022/12/11 10:36:38;;;;;;;23.33;15.13;;;;;;;;;;4956821;28;20057;-76
2022/12/11 10:39:17;;;;;;;24.25;15.93;;;;;;;;;;4956885;28;20055;-78
2022/12/11 10:41:45;;;;;;;24.08;16.15;;;;;;;;;;4959429;28;20464;-78
2022/12/11 10:44:16;;;;;;;27.35;15.88;;;;;;;;;;4940249;28;20105;-76
2022/12/11 10:46:43;;;;;;;31.40;18.80;;;;;;;;;;4971985;28;20129;-76
2022/12/11 10:49:25;;;;;;;26.23;15.48;;;;;;;;;;4972911;28;20091;-76
2022/12/11 10:51:53;;;;;;;25.00;17.35;;;;;;;;;;4956004;28;20058;-76
2022/12/11 10:54:23;;;;;;;25.95;16.92;;;;;;;;;;4971526;28;20503;-76
2022/12/11 10:56:50;;;;;;;26.23;16.63;;;;;;;;;;4972218;28;20109;-76
2022/12/11 10:59:47;;;;;;;22.70;15.93;;;;;;;;;;4971884;28;20441;-76
2022/12/11 11:02:26;;;;;;;23.08;15.48;;;;;;;;;;4974786;28;20047;-77
2022/12/11 11:04:53;;;;;;;23.85;16.52;;;;;;;;;;4971803;28;20482;-75
2022/12/11 11:07:23;;;;;;;25.98;16.25;;;;;;;;;;4971934;28;20046;-75
2022/12/11 11:09:53;;;;;;;22.67;15.45;;;;;;;;;;4971741;28;20054;-76
2022/12/11 11:12:23;;;;;;;23.15;16.85;;;;;;;;;;4940326;28;20062;-75
2022/12/11 11:15:00;;;;;;;21.63;14.52;;;;;;;;;;4955720;28;20050;-75
2022/12/11 11:17:27;;;;;;;18.45;12.43;;;;;;;;;;4971528;28;20082;-75
2022/12/11 11:20:03;;;;;;;;;;;;;;;;;;4972176;28;20525;-75
2022/12/11 11:22:30;;;;;;;20.92;14.35;;;;;;;;;;4971594;28;19922;-75
2022/12/11 11:24:57;;;;;;;20.45;13.80;;;;;;;;;;4955125;28;20058;-75
2022/12/11 11:27:27;;;;;;;20.55;13.80;;;;;;;;;;4971555;28;20503;-75
2022/12/11 11:29:55;;;;;;;23.25;14.60;;;;;;;;;;4971349;28;20435;-76
2022/12/11 11:32:33;;;;;;;21.02;15.00;;;;;;;;;;4971465;28;20054;-78
2022/12/11 11:35:10;;;;;;;22.23;15.48;;;;;;;;;;4971321;28;20495;-76
2022/12/11 11:37:42;;;;;;;27.50;17.75;;;;;;;;;;4971037;28;20055;-76
2022/12/11 11:40:32;;;;;;;22.90;15.60;;;;;;;;;;4955662;28;20055;-76
2022/12/11 11:43:14;;;;;;;24.90;15.75;;;;;;;;;;4971846;28;20407;-76
2022/12/11 11:46:21;;;;;;;23.52;15.25;;;;;;;;;;4970993;28;20355;-77
2022/12/11 11:49:52;;;;;;;20.40;14.50;;;;;;;;;;4934205;28;20054;-77
2022/12/11 11:52:34;;;;;;;20.40;14.23;;;;;;;;;;4872580;29;20052;-77
2022/12/11 11:55:02;;;;;;;22.58;15.05;;;;;;;;;;4880325;29;20048;-77
2022/12/11 11:58:04;;;;;;;21.35;15.25;;;;;;;;;;4941423;28;20409;-75
2022/12/11 12:00:30;;;;;;;22.30;15.23;;;;;;;;;;4935968;28;20058;-78
2022/12/11 12:03:01;;;;;;;19.95;14.05;;;;;;;;;;4974335;28;20189;-81
2022/12/11 12:05:38;;;;;;;20.38;14.52;;;;;;;;;;4957705;28;20313;-75
2022/12/11 12:08:07;;;;;;;21.42;15.25;;;;;;;;;;4975630;28;20046;-78
2022/12/11 12:11:00;;;;;;;21.98;14.27;;;;;;;;;;4973798;28;20137;-78
2022/12/11 12:13:49;;;;;;;22.13;15.00;;;;;;;;;;4973323;28;20388;-79
2022/12/11 12:16:30;;;;;;;22.25;15.13;;;;;;;;;;4960606;28;20055;-80
2022/12/11 12:19:51;;;;;;;23.38;15.27;;;;;;;;;;4961958;28;20055;-79
2022/12/11 12:22:21;;;;;;;19.63;14.18;;;;;;;;;;4976538;28;20061;-80
2022/12/11 12:25:09;;;;;;;21.42;13.70;;;;;;;;;;4977473;28;20043;-79
2022/12/11 12:27:50;;;;;;;21.83;14.65;;;;;;;;;;4950340;28;20055;-79
2022/12/11 12:30:19;;;;;;;20.95;14.55;;;;;;;;;;4970652;28;20051;-79
2022/12/11 12:32:54;;;;;;;21.75;13.88;;;;;;;;;;4970581;28;20146;-80
2022/12/11 12:35:21;;;;;;;22.73;15.00;;;;;;;;;;4976182;28;20061;-83
2022/12/11 12:38:00;;;;;;;23.08;15.13;;;;;;;;;;4977691;28;20054;-80
2022/12/11 12:40:45;;;;;;;21.20;14.48;;;;;;;;;;4977387;28;20059;-82
2022/12/11 12:43:46;;;;;;;23.45;14.90;;;;;;;;;;4980631;28;20563;-80
2022/12/11 12:46:37;;;;;;;23.25;15.05;;;;;;;;;;4973445;28;20078;-77
2022/12/11 12:49:03;;;;;;;23.45;15.57;;;;;;;;;;4958709;28;20050;-77
2022/12/11 12:51:30;;;;;;;24.15;15.65;;;;;;;;;;4958856;28;20592;-77
2022/12/11 12:53:59;;;;;;;24.95;15.20;;;;;;;;;;4942370;28;20069;-77
2022/12/11 12:56:26;;;;;;;23.02;15.68;;;;;;;;;;4959127;28;20051;-77
2022/12/11 12:58:53;;;;;;;26.95;17.40;;;;;;;;;;4974152;28;20062;-78
2022/12/11 13:01:25;;;;;;;24.65;15.73;;;;;;;;;;4956832;28;20470;-77
2022/12/11 13:04:04;;;;;;;21.40;14.40;;;;;;;;;;4936739;28;20062;-75
2022/12/11 13:06:39;;;;;;;23.52;15.73;;;;;;;;;;4946222;28;20085;-77
2022/12/11 13:09:22;;;;;;;25.20;15.00;;;;;;;;;;4959702;28;20069;-78
2022/12/11 13:11:53;;;;;;;27.17;15.43;;;;;;;;;;4961121;28;20409;-78
2022/12/11 13:14:28;;;;;;;24.85;15.27;;;;;;;;;;4972363;28;20051;-81
2022/12/11 13:17:20;;;;;;;28.95;17.50;;;;;;;;;;4959031;29;20479;-81
2022/12/11 13:19:48;;;;;;;30.00;15.90;;;;;;;;;;4966734;28;20511;-80
2022/12/11 13:22:14;;;;;;;26.05;16.20;;;;;;;;;;4959051;28;20057;-79
2022/12/11 13:24:46;;;;;;;26.92;16.90;;;;;;;;;;4977852;28;20047;-77
2022/12/11 13:27:31;;;;;;;29.80;17.08;;;;;;;;;;4940745;28;20055;-77
2022/12/11 13:30:24;;;;;;;32.85;19.23;;;;;;;;;;4971443;28;20050;-78
2022/12/11 13:33:06;;;;;;;30.33;18.73;;;;;;;;;;4949364;28;20086;-77
2022/12/11 13:35:33;;;;;;;33.70;20.67;;;;;;;;;;4970455;28;20105;-78
2022/12/11 13:38:05;;;;;;;35.30;21.27;;;;;;;;;;4956402;28;20062;-78
2022/12/11 13:40:37;;;;;;;34.40;19.25;;;;;;;;;;4939957;28;20055;-78
2022/12/11 13:43:18;;;;;;;34.80;20.63;;;;;;;;;;4956598;28;20055;-78
2022/12/11 13:45:48;;;;;;;35.15;20.13;;;;;;;;;;4972385;28;20043;-78
2022/12/11 13:48:25;;;;;;;32.33;19.75;;;;;;;;;;4957830;28;20507;-78
2022/12/11 13:50:53;;;;;;;36.28;20.73;;;;;;;;;;4941824;28;20054;-78
2022/12/11 13:53:20;;;;;;;30.48;19.20;;;;;;;;;;4955207;28;20527;-78
2022/12/11 13:56:05;;;;;;;32.28;19.00;;;;;;;;;;4971058;28;20557;-78
2022/12/11 13:58:38;;;;;;;33.05;19.48;;;;;;;;;;4973766;28;20522;-78
2022/12/11 14:01:06;;;;;;;;;;;;;;;;;;4941931;28;20047;-78
2022/12/11 14:03:33;;;;;;;31.90;19.80;;;;;;;;;;4977255;28;20379;-84
2022/12/11 14:06:00;;;;;;;34.72;19.58;;;;;;;;;;4961170;28;20043;-78
2022/12/11 14:08:32;;;;;;;29.38;17.00;;;;;;;;;;4957809;28;20055;-77
2022/12/11 14:10:58;;;;;;;28.23;17.73;;;;;;;;;;4973165;28;20243;-78
2022/12/11 14:13:28;;;;;;;34.58;19.48;;;;;;;;;;4973792;28;20043;-78
2022/12/11 14:15:55;;;;;;;33.45;19.90;;;;;;;;;;4944068;28;20039;-79
2022/12/11 14:18:23;;;;;;;37.85;21.85;;;;;;;;;;4943709;28;20503;-79
2022/12/11 14:20:57;;;;;;;33.38;19.23;;;;;;;;;;4956923;28;20073;-77
2022/12/11 14:23:26;;;;;;;32.53;19.33;;;;;;;;;;4956806;28;20574;-78
2022/12/11 14:26:01;;;;;;;33.42;19.70;;;;;;;;;;4972893;28;20054;-78
2022/12/11 14:28:34;;;;;;;32.85;19.42;;;;;;;;;;4956887;28;20058;-78
2022/12/11 14:31:01;;;;;;;;;;;;;;;;;;4973070;28;20605;-77
2022/12/11 14:33:39;;;;;;;33.67;20.38;;;;;;;;;;4956632;28;19926;-78
2022/12/11 14:36:06;;;;;;;34.30;21.75;;;;;;;;;;4956754;28;20074;-77
2022/12/11 14:38:48;;;;;;;35.88;20.83;;;;;;;;;;4957876;28;20508;-77
2022/12/11 14:41:20;;;;;;;37.17;21.83;;;;;;;;;;4958033;28;20059;-77
2022/12/11 14:43:49;;;;;;;38.53;23.50;;;;;;;;;;4940915;28;20046;-78
2022/12/11 14:46:21;;;;;;;37.60;23.08;;;;;;;;;;4957355;28;20400;-77
2022/12/11 14:49:04;;;;;;;34.97;21.35;;;;;;;;;;4974044;28;20061;-78
2022/12/11 14:51:34;;;;;;;38.50;21.05;;;;;;;;;;4971818;28;20059;-77